Time;durP1;ratioP1;P1;durP2;ratioP2;P2;SDS_P1;SDS_P2;PMS_P1;PMS_P2;Temp;Humidity;BMP_temperature;BMP_pressure;BME280_temperature;BME280_humidity;BME280_pressure;Samples;Min_cycle;Max_cycle;Signal;HPM_P1;HPM_P2
2021/12/04 00:01:12;;;;;;;70.85;36.47;;;7.10;99.90;;;;;;4933625;29;20035;-71
2021/12/04 00:03:38;;;;;;;76.90;36.63;;;7.10;99.90;;;;;;4924501;29;20526;-71
2021/12/04 00:06:13;;;;;;;76.38;36.80;;;7.10;99.90;;;;;;4924151;29;20027;-71
2021/12/04 00:08:43;;;;;;;71.40;35.85;;;7.10;99.90;;;;;;4929083;29;20067;-71
2021/12/04 00:11:09;;;;;;;72.45;36.63;;;7.10;99.90;;;;;;4929532;29;20036;-71
2021/12/04 00:13:34;;;;;;;76.38;36.88;;;7.00;99.90;;;;;;4925408;29;20136;-71
2021/12/04 00:16:00;;;;;;;72.65;37.00;;;6.90;99.90;;;;;;4932822;29;20494;-70
2021/12/04 00:18:26;;;;;;;68.03;34.22;;;6.70;99.90;;;;;;4926822;29;20038;-72
2021/12/04 00:20:51;;;;;;;67.28;33.08;;;6.60;99.90;;;;;;4924905;29;20031;-71
2021/12/04 00:23:17;;;;;;;70.47;33.67;;;6.50;99.90;;;;;;4921392;29;20032;-73
2021/12/04 00:25:43;;;;;;;60.85;31.00;;;6.30;99.90;;;;;;4928517;29;20131;-71
2021/12/04 00:28:08;;;;;;;71.10;31.05;;;6.30;99.90;;;;;;4926841;29;20405;-72
2021/12/04 00:30:35;;;;;;;58.40;28.05;;;6.10;99.90;;;;;;4929934;29;20025;-71
2021/12/04 00:33:09;;;;;;;58.15;26.90;;;6.00;99.90;;;;;;4923893;29;20024;-71
2021/12/04 00:35:52;;;;;;;67.93;30.40;;;6.10;99.90;;;;;;4932577;29;20055;-70
2021/12/04 00:49:18;;;;;;;58.95;28.27;;;5.90;99.90;;;;;;4930464;29;20046;-72
2021/12/04 00:51:55;;;;;;;59.63;28.33;;;6.00;99.90;;;;;;4931849;29;20031;-72
2021/12/04 00:54:26;;;;;;;51.15;26.52;;;5.90;99.90;;;;;;4933086;29;20028;-72
2021/12/04 00:56:52;;;;;;;42.78;22.60;;;6.00;99.90;;;;;;4930160;29;20032;-71
2021/12/04 00:59:19;;;;;;;48.28;24.63;;;6.10;99.90;;;;;;4932638;29;20490;-71
2021/12/04 01:01:45;;;;;;;51.65;25.33;;;6.20;99.90;;;;;;4927934;29;20034;-70
2021/12/04 01:04:18;;;;;;;46.75;25.55;;;6.00;99.90;;;;;;4930719;29;20024;-70
2021/12/04 01:06:45;;;;;;;55.08;26.83;;;6.00;99.90;;;;;;4920940;29;20090;-71
2021/12/04 01:09:12;;;;;;;51.53;27.10;;;5.90;99.90;;;;;;4929769;29;20034;-71
2021/12/04 01:11:39;;;;;;;51.05;27.83;;;5.90;99.90;;;;;;4931863;29;20031;-71
2021/12/04 01:14:06;;;;;;;56.80;27.67;;;5.80;99.90;;;;;;4929936;29;20479;-71
2021/12/04 01:16:31;;;;;;;53.38;28.23;;;5.80;99.90;;;;;;4926197;29;20035;-72
2021/12/04 01:18:57;;;;;;;62.97;29.10;;;5.80;99.90;;;;;;4932328;29;20095;-72
2021/12/04 01:21:23;;;;;;;57.38;30.00;;;5.90;99.90;;;;;;4927813;29;20091;-72
2021/12/04 01:23:49;;;;;;;54.45;28.40;;;5.90;99.90;;;;;;4926707;29;20032;-72
2021/12/04 01:26:14;;;;;;;53.38;27.88;;;6.10;99.90;;;;;;4927226;29;20032;-72
2021/12/04 01:28:40;;;;;;;61.42;31.35;;;6.30;99.90;;;;;;4932359;29;20048;-71
2021/12/04 01:31:06;;;;;;;74.90;37.33;;;6.40;99.90;;;;;;4931688;29;20084;-70
2021/12/04 01:33:32;;;;;;;76.85;32.63;;;6.50;99.90;;;;;;4931373;29;20032;-71
2021/12/04 01:35:58;;;;;;;61.30;31.52;;;6.70;99.90;;;;;;4917864;29;20028;-70
2021/12/04 01:38:24;;;;;;;59.65;31.00;;;6.80;99.90;;;;;;4930424;29;20039;-71
2021/12/04 01:40:50;;;;;;;64.97;31.50;;;6.80;99.90;;;;;;4912872;29;20401;-71
2021/12/04 01:43:15;;;;;;;62.72;32.08;;;6.90;99.90;;;;;;4935414;29;20034;-72
2021/12/04 01:45:42;;;;;;;60.08;31.35;;;7.00;99.90;;;;;;4923498;29;20466;-72
2021/12/04 01:48:08;;;;;;;57.03;30.70;;;7.00;99.90;;;;;;4932199;29;20035;-72
2021/12/04 01:50:34;;;;;;;62.53;31.00;;;7.10;99.90;;;;;;4927957;29;20024;-71
2021/12/04 01:53:02;;;;;;;62.75;29.48;;;7.20;99.90;;;;;;4920295;29;20099;-72
2021/12/04 01:55:30;;;;;;;59.22;28.58;;;7.20;99.90;;;;;;4932478;29;20035;-71
2021/12/04 01:57:57;;;;;;;59.67;32.22;;;7.30;99.90;;;;;;4922616;29;20084;-71
2021/12/04 02:00:23;;;;;;;56.08;30.50;;;6.90;99.90;;;;;;4924951;29;20042;-73
2021/12/04 02:02:49;;;;;;;67.15;32.30;;;6.60;99.90;;;;;;4920795;29;20469;-72
2021/12/04 02:05:14;;;;;;;60.95;30.85;;;6.50;99.90;;;;;;4932209;29;20035;-72
2021/12/04 02:07:40;;;;;;;58.17;29.95;;;6.30;99.90;;;;;;4919573;29;20047;-72
2021/12/04 02:10:06;;;;;;;71.28;34.67;;;6.10;99.90;;;;;;4920635;29;20526;-72
2021/12/04 02:12:32;;;;;;;65.55;33.35;;;6.10;99.90;;;;;;4932078;29;20367;-72
2021/12/04 02:14:58;;;;;;;63.75;34.05;;;6.00;99.90;;;;;;4923024;29;20043;-71
2021/12/04 02:17:24;;;;;;;65.90;33.58;;;6.10;99.90;;;;;;4914844;29;20028;-71
2021/12/04 02:19:50;;;;;;;67.00;33.53;;;6.10;99.90;;;;;;4928640;29;20035;-74
2021/12/04 02:22:17;;;;;;;58.40;29.75;;;6.10;99.90;;;;;;4931417;29;20051;-72
2021/12/04 02:24:43;;;;;;;59.38;30.20;;;6.10;99.90;;;;;;4926840;29;20207;-71
2021/12/04 02:27:10;;;;;;;57.25;29.25;;;6.30;99.90;;;;;;4926101;29;20024;-72
2021/12/04 02:29:36;;;;;;;66.63;32.78;;;6.30;99.90;;;;;;4927580;29;20111;-70
2021/12/04 02:32:02;;;;;;;60.42;31.63;;;6.30;99.90;;;;;;4926167;29;20032;-71
2021/12/04 02:34:30;;;;;;;62.38;32.22;;;6.50;99.90;;;;;;4930620;29;20031;-71
2021/12/04 02:36:57;;;;;;;62.50;31.08;;;6.40;99.90;;;;;;4930540;29;20036;-72
2021/12/04 02:39:28;;;;;;;60.00;31.27;;;6.40;99.90;;;;;;4930756;29;20031;-71
2021/12/04 02:41:54;;;;;;;63.42;32.45;;;6.30;99.90;;;;;;4925181;29;20050;-70
2021/12/04 02:44:20;;;;;;;59.67;30.77;;;6.30;99.90;;;;;;4924832;29;20435;-72
2021/12/04 02:46:46;;;;;;;;;;;6.50;99.90;;;;;;4916877;29;20068;-72
2021/12/04 02:49:14;;;;;;;58.38;27.65;;;6.60;99.90;;;;;;4926713;29;19950;-71
2021/12/04 02:51:41;;;;;;;58.47;28.08;;;6.70;99.90;;;;;;4928783;29;20498;-71
2021/12/04 02:54:10;;;;;;;57.45;27.63;;;6.80;99.90;;;;;;4917475;29;20028;-71
2021/12/04 02:56:35;;;;;;;54.42;27.15;;;6.90;99.90;;;;;;4928786;29;20027;-72
2021/12/04 02:59:02;;;;;;;63.15;28.10;;;7.00;99.90;;;;;;4925932;29;20072;-71
2021/12/04 03:01:28;;;;;;;57.17;26.92;;;7.10;99.90;;;;;;4927761;29;20036;-71
2021/12/04 03:04:10;;;;;;;;;;;7.10;99.90;;;;;;4933349;29;20028;-71
2021/12/04 03:06:45;;;;;;;57.15;24.88;;;7.30;99.90;;;;;;4931138;29;19919;-72
2021/12/04 03:09:12;;;;;;;57.13;26.77;;;7.40;99.90;;;;;;4930046;29;20522;-72
2021/12/04 03:11:38;;;;;;;63.40;27.05;;;7.50;99.90;;;;;;4926174;29;20047;-71
2021/12/04 03:14:05;;;;;;;58.95;27.10;;;7.50;99.90;;;;;;4929185;29;20303;-73
2021/12/04 03:16:32;;;;;;;64.35;26.60;;;7.60;99.90;;;;;;4918447;29;20129;-70
2021/12/04 03:18:58;;;;;;;56.90;25.38;;;7.70;99.90;;;;;;4925175;29;20032;-71
2021/12/04 03:21:24;;;;;;;47.03;23.33;;;7.70;99.90;;;;;;4930672;29;20106;-72
2021/12/04 03:24:02;;;;;;;49.17;23.48;;;7.70;99.90;;;;;;4929512;29;20043;-72
2021/12/04 03:26:28;;;;;;;52.72;23.95;;;7.60;99.90;;;;;;4921969;29;20040;-71
2021/12/04 03:28:55;;;;;;;47.08;22.58;;;7.80;99.90;;;;;;4932425;29;20063;-72
2021/12/04 03:42:21;;;;;;;37.38;16.95;;;7.90;99.90;;;;;;4927272;29;20040;-71
2021/12/04 03:44:47;;;;;;;36.03;15.95;;;8.00;99.90;;;;;;4933859;29;20123;-72
2021/12/04 03:47:12;;;;;;;32.65;14.82;;;7.90;99.90;;;;;;4931054;29;20032;-71
2021/12/04 03:49:38;;;;;;;30.65;15.68;;;8.00;99.90;;;;;;4931859;29;20066;-71
2021/12/04 03:52:06;;;;;;;39.42;16.60;;;7.90;99.90;;;;;;4929695;29;20032;-72
2021/12/04 03:54:32;;;;;;;33.40;15.00;;;7.90;99.90;;;;;;4935200;29;20513;-73
2021/12/04 03:57:02;;;;;;;46.92;17.70;;;7.90;99.90;;;;;;4926964;29;20032;-71
2021/12/04 03:59:36;;;;;;;45.30;18.35;;;7.90;99.90;;;;;;4933313;29;20066;-72
2021/12/04 04:02:05;;;;;;;38.50;17.15;;;8.00;99.90;;;;;;4933244;29;20036;-71
2021/12/04 04:04:31;;;;;;;40.13;16.33;;;8.00;99.90;;;;;;4932449;29;20028;-71
2021/12/04 04:06:59;;;;;;;36.17;16.63;;;8.10;99.90;;;;;;4931755;29;20058;-72
2021/12/04 04:09:26;;;;;;;32.42;16.08;;;8.10;99.90;;;;;;4929672;29;20032;-71
2021/12/04 04:11:52;;;;;;;35.03;15.65;;;8.10;99.90;;;;;;4932558;29;20497;-72
2021/12/04 04:14:17;;;;;;;33.30;14.40;;;8.20;99.90;;;;;;4933031;29;20028;-71
2021/12/04 04:16:43;;;;;;;30.90;12.80;;;8.10;99.90;;;;;;4930298;29;20585;-72
2021/12/04 04:19:10;;;;;;;25.63;12.25;;;8.00;99.90;;;;;;4927020;29;20028;-72
2021/12/04 04:21:41;;;;;;;27.23;12.05;;;8.00;99.90;;;;;;4920231;29;20024;-72
2021/12/04 04:24:13;;;;;;;30.10;12.48;;;8.00;99.90;;;;;;4924648;29;20506;-73
2021/12/04 04:26:43;;;;;;;28.08;12.45;;;8.00;99.90;;;;;;4932186;29;20067;-73
2021/12/04 04:29:09;;;;;;;26.52;12.70;;;8.10;99.90;;;;;;4932576;29;20215;-70
2021/12/04 04:31:37;;;;;;;26.05;13.52;;;8.10;99.90;;;;;;4930254;29;20341;-71
2021/12/04 04:34:06;;;;;;;26.77;13.65;;;8.00;99.90;;;;;;4941591;29;20388;-71
2021/12/04 04:58:43;;;;;;;10.57;4.90;;;7.90;99.90;;;;;;4928554;29;20043;-72
2021/12/04 05:14:32;;;;;;;;;;;7.80;99.90;;;;;;4932745;29;20074;-71
2021/12/04 05:17:04;;;;;;;7.95;3.38;;;7.80;99.90;;;;;;4928572;29;20383;-71
2021/12/04 05:19:39;;;;;;;9.07;2.95;;;7.80;99.90;;;;;;4930900;29;20469;-71
2021/12/04 05:22:09;;;;;;;6.30;2.70;;;7.80;99.90;;;;;;4929940;29;20068;-71
2021/12/04 05:24:35;;;;;;;11.45;2.58;;;7.80;99.90;;;;;;4932362;29;20055;-71
2021/12/04 05:27:01;;;;;;;10.80;2.60;;;7.70;99.90;;;;;;4930052;29;20035;-71
2021/12/04 05:29:26;;;;;;;12.25;2.65;;;7.60;99.90;;;;;;4928248;29;20047;-70
2021/12/04 05:31:52;;;;;;;7.93;2.35;;;7.60;99.90;;;;;;4931240;29;20034;-73
2021/12/04 05:34:18;;;;;;;7.35;2.08;;;7.60;99.90;;;;;;4933116;29;20490;-71
2021/12/04 05:36:44;;;;;;;9.23;2.53;;;7.60;99.90;;;;;;4925829;29;20494;-71
2021/12/04 05:39:10;;;;;;;10.30;2.03;;;7.60;99.90;;;;;;4923995;29;20244;-71
2021/12/04 05:41:36;;;;;;;13.20;2.08;;;7.60;99.90;;;;;;4934564;29;20028;-73
2021/12/04 05:44:08;;;;;;;6.53;1.90;;;7.60;99.90;;;;;;4923486;29;20090;-71
2021/12/04 05:46:42;;;;;;;11.25;1.98;;;7.60;99.90;;;;;;4930659;29;20067;-71
2021/12/04 05:56:29;;;;;;;10.82;2.42;;;7.50;99.90;;;;;;4923986;29;20060;-72
2021/12/04 05:58:57;;;;;;;10.70;2.50;;;7.40;99.90;;;;;;4923664;29;20126;-71
2021/12/04 06:01:23;;;;;;;9.75;1.95;;;7.40;99.90;;;;;;4930425;29;20390;-72
2021/12/04 06:03:49;;;;;;;7.78;1.85;;;7.30;99.90;;;;;;4926285;29;20056;-72
2021/12/04 06:06:16;;;;;;;12.18;2.28;;;7.20;99.90;;;;;;4920882;29;20028;-72
2021/12/04 06:08:42;;;;;;;12.57;2.08;;;7.20;99.90;;;;;;4931304;29;20423;-72
2021/12/04 06:11:08;;;;;;;13.40;2.10;;;7.20;99.90;;;;;;4926876;29;20103;-72
2021/12/04 06:13:34;;;;;;;11.23;1.88;;;7.20;99.90;;;;;;4929188;29;20138;-72
2021/12/04 06:15:59;;;;;;;21.52;2.33;;;7.10;99.90;;;;;;4932046;29;20801;-72
2021/12/04 06:18:25;;;;;;;15.48;2.42;;;7.10;99.90;;;;;;4924852;29;20038;-71
2021/12/04 06:23:36;;;;;;;13.65;2.00;;;7.10;99.90;;;;;;4931690;29;20429;-71
2021/12/04 06:26:02;;;;;;;;;;;7.00;99.90;;;;;;4930011;29;20027;-71
2021/12/04 06:28:28;;;;;;;11.90;1.70;;;7.00;99.90;;;;;;4931847;29;19925;-71
2021/12/04 06:30:55;;;;;;;14.90;2.17;;;6.90;99.90;;;;;;4926631;29;20118;-70
2021/12/04 06:33:21;;;;;;;12.50;1.88;;;6.90;99.90;;;;;;4927978;29;20024;-72
2021/12/04 06:35:47;;;;;;;;;;;6.80;99.90;;;;;;4928585;29;20043;-71
2021/12/04 06:38:15;;;;;;;17.13;2.20;;;6.90;99.90;;;;;;4932547;29;19958;-71
2021/12/04 06:40:42;;;;;;;14.10;1.67;;;6.70;99.90;;;;;;4927582;29;20039;-72
2021/12/04 06:43:08;;;;;;;16.55;1.88;;;6.80;99.90;;;;;;4932548;29;20027;-72
2021/12/04 06:45:36;;;;;;;;;;;6.70;99.90;;;;;;4928227;29;20066;-72
2021/12/04 06:48:07;;;;;;;17.65;2.30;;;6.70;99.90;;;;;;4931118;29;19911;-71
2021/12/04 06:50:57;;;;;;;22.33;2.88;;;6.70;99.90;;;;;;4927584;29;20111;-75
2021/12/04 06:56:06;;;;;;;18.98;2.40;;;6.70;99.90;;;;;;4931731;29;20038;-74
2021/12/04 06:58:32;;;;;;;22.75;2.65;;;6.70;99.90;;;;;;4931168;29;20066;-74
2021/12/04 07:00:57;;;;;;;17.35;2.45;;;6.70;99.90;;;;;;4932431;29;20538;-74
2021/12/04 07:03:23;;;;;;;14.85;2.25;;;6.70;99.90;;;;;;4932715;29;20039;-74
2021/12/04 07:05:49;;;;;;;26.52;2.88;;;6.70;99.90;;;;;;4933382;29;20032;-75
2021/12/04 07:08:15;;;;;;;16.77;3.17;;;6.60;99.90;;;;;;4935556;29;20031;-74
2021/12/04 07:10:41;;;;;;;16.67;2.92;;;6.70;99.90;;;;;;4935255;29;20028;-74
2021/12/04 07:13:07;;;;;;;21.73;2.53;;;6.60;99.90;;;;;;4935317;29;20055;-75
2021/12/04 07:15:33;;;;;;;23.05;2.65;;;6.60;99.90;;;;;;4932353;29;20123;-74
2021/12/04 07:18:00;;;;;;;30.40;3.03;;;6.60;99.90;;;;;;4932919;29;20035;-75
2021/12/04 07:20:27;;;;;;;18.10;2.58;;;6.50;99.90;;;;;;4933733;29;20265;-74
2021/12/04 07:22:52;;;;;;;23.45;2.40;;;6.50;99.90;;;;;;4932196;29;20590;-76
2021/12/04 07:25:18;;;;;;;15.25;2.65;;;6.50;99.90;;;;;;4931318;29;20061;-75
2021/12/04 07:27:45;;;;;;;21.20;2.70;;;6.50;99.90;;;;;;4935881;29;20039;-74
2021/12/04 07:30:11;;;;;;;24.25;2.40;;;6.40;99.90;;;;;;4931549;29;20039;-75
2021/12/04 07:32:38;;;;;;;26.95;2.92;;;6.50;99.90;;;;;;4933139;29;20027;-76
2021/12/04 07:35:04;;;;;;;27.15;2.58;;;6.50;99.90;;;;;;4933941;29;20120;-75
2021/12/04 07:37:30;;;;;;;25.75;2.67;;;6.40;99.90;;;;;;4934210;29;20038;-70
2021/12/04 07:39:56;;;;;;;15.85;2.55;;;6.40;99.90;;;;;;4928133;29;20402;-75
2021/12/04 07:42:21;;;;;;;17.42;2.33;;;6.40;99.90;;;;;;4934041;29;20115;-75
2021/12/04 07:44:47;;;;;;;29.40;2.97;;;6.30;99.90;;;;;;4934535;29;20066;-70
2021/12/04 07:47:14;;;;;;;25.10;2.67;;;6.30;99.90;;;;;;4935759;29;20034;-71
2021/12/04 07:49:40;;;;;;;19.33;2.70;;;6.20;99.90;;;;;;4931034;29;20032;-72
2021/12/04 07:52:08;;;;;;;17.20;2.60;;;6.20;99.90;;;;;;4931744;29;20461;-71
2021/12/04 07:54:34;;;;;;;24.52;2.80;;;6.10;99.90;;;;;;4928970;29;20059;-72
2021/12/04 07:57:00;;;;;;;27.92;2.60;;;6.20;99.90;;;;;;4928065;29;20031;-72
2021/12/04 07:59:26;;;;;;;19.30;2.60;;;6.10;99.90;;;;;;4924784;29;20394;-71
2021/12/04 08:01:52;;;;;;;21.63;3.67;;;6.10;99.90;;;;;;4928484;29;20023;-72
2021/12/04 08:04:19;;;;;;;22.25;2.58;;;6.10;99.90;;;;;;4927398;29;20505;-71
2021/12/04 08:06:44;;;;;;;28.58;2.85;;;6.00;99.90;;;;;;4919447;29;20038;-71
2021/12/04 08:09:10;;;;;;;27.65;3.35;;;6.10;99.90;;;;;;4927951;29;20036;-71
2021/12/04 08:11:37;;;;;;;25.63;2.88;;;6.00;99.90;;;;;;4927828;29;20050;-71
2021/12/04 08:14:02;;;;;;;21.90;2.15;;;6.00;99.90;;;;;;4927935;29;20127;-71
2021/12/04 08:16:32;;;;;;;24.48;2.25;;;6.00;99.90;;;;;;4928282;29;20055;-71
2021/12/04 08:18:58;;;;;;;17.92;2.42;;;6.00;99.90;;;;;;4919937;29;20130;-71
2021/12/04 08:21:23;;;;;;;20.77;3.15;;;6.00;99.90;;;;;;4926238;29;20032;-72
2021/12/04 08:23:49;;;;;;;28.23;2.58;;;5.90;99.90;;;;;;4928133;29;20135;-71
2021/12/04 08:26:16;;;;;;;18.08;2.30;;;6.00;99.90;;;;;;4928170;29;20028;-72
2021/12/04 08:28:42;;;;;;;21.30;3.00;;;6.00;99.90;;;;;;4927472;29;20102;-72
2021/12/04 08:31:08;;;;;;;19.13;3.10;;;6.10;99.90;;;;;;4926107;29;20391;-71
2021/12/04 08:33:34;;;;;;;15.82;2.13;;;6.10;99.90;;;;;;4930754;29;20028;-73
2021/12/04 08:36:01;;;;;;;;;;;6.10;99.90;;;;;;4927155;29;20114;-72
2021/12/04 08:38:27;;;;;;;21.70;2.25;;;6.00;99.90;;;;;;4928468;29;19952;-71
2021/12/04 08:40:53;;;;;;;32.78;3.30;;;6.00;99.90;;;;;;4929746;29;20427;-72
2021/12/04 08:43:19;;;;;;;15.93;2.38;;;6.00;99.90;;;;;;4934702;29;20115;-71
2021/12/04 08:45:45;;;;;;;20.30;2.25;;;6.00;99.90;;;;;;4932644;29;20027;-71
2021/12/04 08:48:15;;;;;;;19.55;2.58;;;6.00;99.90;;;;;;4934064;29;20532;-72
2021/12/04 08:50:41;;;;;;;35.50;2.90;;;6.00;99.90;;;;;;4931642;29;20039;-72
2021/12/04 08:53:08;;;;;;;17.35;2.20;;;6.00;99.90;;;;;;4931031;29;20450;-71
2021/12/04 08:55:38;;;;;;;25.42;2.63;;;6.00;99.90;;;;;;4930855;29;20028;-72
2021/12/04 08:58:05;;;;;;;25.60;2.83;;;6.10;99.90;;;;;;4929446;29;20037;-70
2021/12/04 09:00:49;;;;;;;31.35;3.35;;;6.10;99.90;;;;;;4923013;29;20043;-72
2021/12/04 09:03:24;;;;;;;17.75;2.13;;;6.10;99.90;;;;;;4931718;29;20023;-73
2021/12/04 09:05:51;;;;;;;22.95;2.90;;;6.10;99.90;;;;;;4923039;29;20036;-72
2021/12/04 09:08:18;;;;;;;25.58;2.72;;;6.10;99.90;;;;;;4944297;29;20036;-74
2021/12/04 09:10:46;;;;;;;26.70;2.75;;;6.10;99.90;;;;;;4932923;29;20036;-73
2021/12/04 09:13:12;;;;;;;27.63;2.97;;;6.10;99.90;;;;;;4929266;28;20064;-74
2021/12/04 09:15:39;;;;;;;19.65;2.63;;;6.10;99.90;;;;;;4930391;29;22259;-73
2021/12/04 09:18:05;;;;;;;20.88;2.83;;;6.10;99.90;;;;;;4933030;29;20055;-74
2021/12/04 09:20:32;;;;;;;17.88;2.17;;;6.20;99.90;;;;;;4933250;29;20442;-74
2021/12/04 09:22:59;;;;;;;24.00;2.65;;;6.20;99.90;;;;;;4923408;29;20052;-73
2021/12/04 09:25:29;;;;;;;15.85;2.50;;;6.30;99.90;;;;;;4922072;29;20019;-73
2021/12/04 09:28:16;;;;;;;25.52;2.58;;;6.30;99.90;;;;;;4930825;29;20040;-72
2021/12/04 10:00:19;;;;;;;13.05;1.92;;;6.80;99.90;;;;;;4925325;29;20046;-74
2021/12/04 10:22:10;;;;;;;18.17;2.40;;;7.10;99.90;;;;;;4919251;29;20091;-74
2021/12/04 10:33:24;;;;;;;15.02;1.70;;;7.30;99.90;;;;;;4929972;29;20078;-74
2021/12/04 10:35:50;;;;;;;10.00;1.50;;;7.40;99.90;;;;;;4916706;29;20107;-75
2021/12/04 10:38:23;;;;;;;14.25;1.83;;;7.40;99.90;;;;;;4930498;29;20099;-74
2021/12/04 10:40:50;;;;;;;14.63;2.08;;;7.40;99.90;;;;;;4933216;29;20078;-74
2021/12/04 10:43:23;;;;;;;15.43;2.35;;;7.50;99.90;;;;;;4932640;29;20058;-74
2021/12/04 10:45:57;;;;;;;12.60;1.90;;;7.50;99.90;;;;;;4923944;29;20129;-72
2021/12/04 10:48:27;;;;;;;12.65;1.77;;;7.60;99.90;;;;;;4927078;29;20043;-74
2021/12/04 10:51:17;;;;;;;18.10;2.30;;;7.50;99.90;;;;;;4924537;29;20032;-73
2021/12/04 10:53:53;;;;;;;21.67;2.13;;;7.50;99.90;;;;;;4929199;29;20024;-73
2021/12/04 11:04:26;;;;;;;15.63;1.90;;;7.60;99.90;;;;;;4920396;29;20094;-74
2021/12/04 11:20:52;;;;;;;16.88;2.50;;;7.80;99.90;;;;;;4926175;29;20484;-74
2021/12/04 11:41:17;;;;;;;13.32;1.95;;;8.00;99.90;;;;;;4927482;29;20034;-71
2021/12/04 11:46:29;;;;;;;12.98;2.05;;;8.00;99.90;;;;;;4923446;29;20035;-72
2021/12/04 11:49:00;;;;;;;20.23;2.35;;;8.00;99.90;;;;;;4930974;29;20035;-72
2021/12/04 11:51:27;;;;;;;18.83;2.05;;;8.10;99.90;;;;;;4933442;29;20541;-71
2021/12/04 11:53:54;;;;;;;19.05;2.20;;;8.10;99.90;;;;;;4934955;29;20058;-73
2021/12/04 11:56:22;;;;;;;20.00;2.40;;;8.20;99.90;;;;;;4931455;29;20083;-73
2021/12/04 11:58:49;;;;;;;10.80;1.65;;;8.30;99.90;;;;;;4929410;29;20028;-72
2021/12/04 12:01:30;;;;;;;11.73;1.52;;;8.30;99.90;;;;;;4928833;29;20067;-71
2021/12/04 12:04:03;;;;;;;20.38;2.17;;;8.30;99.90;;;;;;4928297;29;20031;-71
2021/12/04 12:06:44;;;;;;;24.13;2.45;;;8.30;99.90;;;;;;4931184;29;20053;-71
2021/12/04 12:09:17;;;;;;;16.90;2.10;;;8.30;99.90;;;;;;4931796;29;20383;-71
2021/12/04 12:11:52;;;;;;;20.90;2.13;;;8.30;99.90;;;;;;4929920;29;20363;-73
2021/12/04 12:14:38;;;;;;;11.02;1.50;;;8.30;99.90;;;;;;4927338;29;20411;-72
2021/12/04 12:17:05;;;;;;;17.23;1.98;;;8.30;99.90;;;;;;4932558;29;20066;-71
2021/12/04 12:19:42;;;;;;;17.08;1.88;;;8.30;99.90;;;;;;4929683;29;20028;-73
2021/12/04 12:22:26;;;;;;;13.10;2.30;;;8.40;99.90;;;;;;4929845;29;20044;-75
2021/12/04 12:36:02;;;;;;;13.40;1.75;;;8.50;99.90;;;;;;4929284;29;20024;-73
2021/12/04 12:38:46;;;;;;;13.52;1.58;;;8.50;99.90;;;;;;4926468;29;20186;-73
2021/12/04 12:41:26;;;;;;;11.98;2.30;;;8.50;99.90;;;;;;4934344;29;20043;-73
2021/12/04 12:44:01;;;;;;;15.75;2.08;;;8.60;99.90;;;;;;4938001;29;20074;-73
2021/12/04 12:46:48;;;;;;;16.02;1.33;;;8.60;99.90;;;;;;4922530;29;20024;-74
2021/12/04 12:49:25;;;;;;;16.40;2.03;;;8.60;99.90;;;;;;4930064;29;20038;-74
2021/12/04 12:52:01;;;;;;;20.15;2.88;;;8.60;99.90;;;;;;4928201;29;20063;-73
2021/12/04 12:54:39;;;;;;;18.88;2.17;;;8.70;99.90;;;;;;4924944;29;20035;-72
2021/12/04 12:57:18;;;;;;;14.70;2.25;;;8.80;99.90;;;;;;4925674;29;20023;-74
2021/12/04 13:14:31;;;;;;;22.88;2.35;;;9.00;99.90;;;;;;4924311;29;20445;-71
2021/12/04 13:16:59;;;;;;;21.00;2.90;;;9.00;99.90;;;;;;4927399;29;20059;-71
2021/12/04 13:19:26;;;;;;;16.40;2.03;;;9.00;99.90;;;;;;4926563;29;20043;-71
2021/12/04 13:21:57;;;;;;;17.60;2.40;;;8.90;99.90;;;;;;4923106;29;20032;-72
2021/12/04 13:24:26;;;;;;;17.52;2.42;;;8.90;99.90;;;;;;4930900;29;20576;-73
2021/12/04 13:26:53;;;;;;;19.95;2.90;;;9.00;99.90;;;;;;4926125;29;20098;-71
2021/12/04 13:29:23;;;;;;;17.30;2.47;;;8.90;99.90;;;;;;4926770;29;20111;-72
2021/12/04 13:31:57;;;;;;;22.83;2.60;;;9.00;99.90;;;;;;4925063;29;20043;-72
2021/12/04 13:34:26;;;;;;;21.20;2.38;;;9.10;99.90;;;;;;4926167;29;20127;-72
2021/12/04 13:36:53;;;;;;;13.57;2.00;;;9.00;99.90;;;;;;4919600;29;20030;-72
2021/12/04 13:39:20;;;;;;;11.38;1.88;;;9.00;99.90;;;;;;4926880;29;20032;-74
2021/12/04 13:41:47;;;;;;;10.07;1.65;;;9.00;99.90;;;;;;4928007;29;20059;-77
2021/12/04 13:44:16;;;;;;;11.57;1.92;;;9.00;99.90;;;;;;4919675;29;20039;-70
2021/12/04 13:47:01;;;;;;;14.95;2.08;;;9.00;99.90;;;;;;4924388;29;20470;-72
2021/12/04 13:49:57;;;;;;;15.02;2.20;;;9.10;99.90;;;;;;4939926;28;20036;-71
2021/12/04 13:52:25;;;;;;;4.95;1.35;;;9.20;99.90;;;;;;4930136;29;20035;-70
2021/12/04 13:54:55;;;;;;;16.65;2.45;;;9.10;99.90;;;;;;4926521;29;20613;-71
2021/12/04 13:57:21;;;;;;;12.27;2.25;;;9.00;99.90;;;;;;4926482;29;20055;-70
2021/12/04 13:59:47;;;;;;;12.75;1.90;;;9.10;99.90;;;;;;4921500;29;20059;-69
2021/12/04 14:02:27;;;;;;;14.52;2.40;;;9.10;99.90;;;;;;4924934;29;20752;-71
2021/12/04 14:05:03;;;;;;;12.77;1.60;;;9.10;99.90;;;;;;4925499;29;20024;-71
2021/12/04 14:07:29;;;;;;;8.98;1.95;;;9.00;99.90;;;;;;4926103;29;20059;-69
2021/12/04 14:09:57;;;;;;;;;;;9.00;99.90;;;;;;4931577;29;20040;-70
2021/12/04 14:12:23;;;;;;;9.43;1.90;;;8.90;99.90;;;;;;4922961;29;19954;-71
2021/12/04 14:14:49;;;;;;;15.50;2.00;;;8.90;99.90;;;;;;4928871;29;20063;-72
2021/12/04 14:17:17;;;;;;;12.50;1.67;;;8.90;99.90;;;;;;4930262;29;20032;-71
2021/12/04 14:19:44;;;;;;;20.23;2.72;;;8.80;99.90;;;;;;4923659;29;20023;-71
2021/12/04 14:22:14;;;;;;;;;;;8.70;99.90;;;;;;4928719;29;20028;-71
2021/12/04 14:24:51;;;;;;;18.92;2.20;;;8.70;99.90;;;;;;4925525;29;20230;-70
2021/12/04 14:27:23;;;;;;;11.05;1.88;;;8.70;99.90;;;;;;4924834;29;20047;-70
2021/12/04 14:29:55;;;;;;;11.45;1.90;;;8.70;99.90;;;;;;4926813;29;20059;-71
2021/12/04 14:32:23;;;;;;;10.32;1.67;;;8.60;99.90;;;;;;4924402;29;20111;-70
2021/12/04 14:34:58;;;;;;;17.83;2.75;;;8.60;99.90;;;;;;4929770;29;20122;-70
2021/12/04 14:37:24;;;;;;;21.45;2.92;;;8.50;99.90;;;;;;4927682;29;20024;-70
2021/12/04 14:39:50;;;;;;;22.25;2.35;;;8.50;99.90;;;;;;4930112;29;20028;-72
2021/12/04 14:42:23;;;;;;;19.25;3.38;;;8.50;99.90;;;;;;4922300;29;20047;-70
2021/12/04 14:44:51;;;;;;;16.27;3.00;;;8.50;99.90;;;;;;4921307;29;20100;-70
2021/12/04 14:47:19;;;;;;;14.35;2.10;;;8.40;99.90;;;;;;4926526;29;20202;-71
2021/12/04 14:49:45;;;;;;;16.27;2.47;;;8.40;99.90;;;;;;4926239;29;20086;-70
2021/12/04 14:52:24;;;;;;;18.23;2.42;;;8.30;99.90;;;;;;4925656;29;20036;-71
2021/12/04 14:54:51;;;;;;;23.35;3.53;;;8.40;99.90;;;;;;4923668;29;20078;-71
2021/12/04 14:57:22;;;;;;;13.20;1.83;;;8.30;99.90;;;;;;4927785;29;20019;-71
2021/12/04 15:00:00;;;;;;;14.30;2.72;;;8.30;99.90;;;;;;4926155;29;20078;-69
2021/12/04 15:02:26;;;;;;;20.60;2.75;;;8.20;99.90;;;;;;4925857;29;20367;-71
2021/12/04 15:04:52;;;;;;;;;;;8.20;99.90;;;;;;4926608;29;20039;-71
2021/12/04 15:07:28;;;;;;;14.60;2.15;;;8.20;99.90;;;;;;4926721;29;19919;-69
2021/12/04 15:09:55;;;;;;;12.88;2.50;;;8.20;99.90;;;;;;4927693;29;20059;-69
2021/12/04 15:12:28;;;;;;;13.68;2.38;;;8.10;99.90;;;;;;4925730;29;20439;-70
2021/12/04 15:15:03;;;;;;;22.20;2.63;;;8.10;99.90;;;;;;4926086;29;20070;-70
2021/12/04 15:17:30;;;;;;;16.80;2.35;;;8.10;99.90;;;;;;4926178;29;20028;-71
2021/12/04 15:20:11;;;;;;;16.77;2.47;;;8.00;99.90;;;;;;4926068;29;20098;-71
2021/12/04 15:22:44;;;;;;;17.70;2.63;;;8.00;99.90;;;;;;4929811;29;20378;-69
2021/12/04 15:25:13;;;;;;;12.90;2.55;;;8.00;99.90;;;;;;4929969;29;20028;-71
2021/12/04 15:27:39;;;;;;;16.70;1.92;;;8.00;99.90;;;;;;4930134;29;20035;-70
2021/12/04 15:30:15;;;;;;;16.25;2.30;;;8.00;99.90;;;;;;4928669;29;20055;-71
2021/12/04 15:32:43;;;;;;;8.93;2.00;;;8.00;99.90;;;;;;4931193;29;20050;-72
2021/12/04 15:35:20;;;;;;;12.77;2.25;;;7.90;99.90;;;;;;4931675;29;20628;-72
2021/12/04 15:37:55;;;;;;;12.68;2.25;;;8.00;99.90;;;;;;4931164;29;20350;-70
2021/12/04 15:40:27;;;;;;;28.63;3.22;;;7.90;99.90;;;;;;4932541;29;20043;-71
2021/12/04 15:46:02;;;;;;;12.38;2.38;;;7.80;99.90;;;;;;4929620;29;20061;-71
2021/12/04 15:48:37;;;;;;;16.25;2.30;;;7.80;99.90;;;;;;4931010;29;20058;-70
2021/12/04 15:53:50;;;;;;;19.40;2.40;;;7.80;99.90;;;;;;4925849;29;20031;-76
2021/12/04 15:56:43;;;;;;;14.32;2.10;;;7.70;99.90;;;;;;4927349;29;20031;-74
2021/12/04 15:59:20;;;;;;;9.32;1.63;;;7.70;99.90;;;;;;4928719;29;20039;-74
2021/12/04 16:01:47;;;;;;;9.15;2.17;;;7.70;99.90;;;;;;4926708;29;20058;-75
2021/12/04 16:04:28;;;;;;;13.20;2.35;;;7.60;99.90;;;;;;4928016;29;20031;-73
2021/12/04 16:06:56;;;;;;;13.45;2.55;;;7.60;99.90;;;;;;4924381;29;20512;-73
2021/12/04 16:09:48;;;;;;;14.40;2.67;;;7.60;99.90;;;;;;4929026;29;20078;-74
2021/12/04 16:12:15;;;;;;;18.17;2.50;;;7.50;99.90;;;;;;4921786;29;20039;-71
2021/12/04 16:14:44;;;;;;;15.30;2.28;;;7.50;99.90;;;;;;4921839;29;20051;-73
2021/12/04 16:17:11;;;;;;;17.88;2.88;;;7.40;99.90;;;;;;4927610;29;20134;-72
2021/12/04 16:19:45;;;;;;;11.73;1.73;;;7.40;99.90;;;;;;4925545;29;20043;-72